createdAt,value
2019-05-16T00:00:00.874Z,9.71
2019-05-16T00:01:00.769Z,9.67
2019-05-16T00:02:01.486Z,9.60
2019-05-16T00:03:00.595Z,9.68
2019-05-16T00:04:00.626Z,9.74
2019-05-16T00:05:00.442Z,9.73
2019-05-16T00:06:00.435Z,9.70
2019-05-16T00:07:00.258Z,9.67
2019-05-16T00:08:00.249Z,9.62
2019-05-16T00:09:00.090Z,9.73
2019-05-16T00:10:00.116Z,9.68
2019-05-16T00:10:59.921Z,9.70
2019-05-16T00:11:59.872Z,9.68
2019-05-16T00:12:59.912Z,9.73
2019-05-16T00:13:59.876Z,9.67
2019-05-16T00:14:59.599Z,9.71
2019-05-16T00:15:59.683Z,9.74
2019-05-16T00:16:59.424Z,9.74
2019-05-16T00:17:59.333Z,9.78
2019-05-16T00:18:59.294Z,9.80
2019-05-16T00:19:59.180Z,9.75
2019-05-16T00:20:59.089Z,9.75
2019-05-16T00:21:59.108Z,9.63
2019-05-16T00:22:59.164Z,9.77
2019-05-16T00:23:58.829Z,9.63
2019-05-16T00:24:58.967Z,9.71
2019-05-16T00:25:58.807Z,9.73
2019-05-16T00:26:58.586Z,9.75
2019-05-16T00:27:58.891Z,9.70
2019-05-16T00:28:58.917Z,9.68
2019-05-16T00:29:58.344Z,9.56
2019-05-16T00:30:59.120Z,9.58
2019-05-16T00:31:58.161Z,9.59
2019-05-16T00:32:58.778Z,9.55
2019-05-16T00:33:58.163Z,9.68
2019-05-16T00:34:58.449Z,9.59
2019-05-16T00:36:03.544Z,9.65
2019-05-16T00:36:58.164Z,9.59
2019-05-16T00:37:58.936Z,9.59
2019-05-16T00:38:57.955Z,9.58
2019-05-16T00:39:58.858Z,9.50
2019-05-16T00:40:59.116Z,9.58
2019-05-16T00:41:58.396Z,9.53
2019-05-16T00:42:58.849Z,9.55
2019-05-16T00:43:57.732Z,9.56
2019-05-16T00:44:58.369Z,9.58
2019-05-16T00:45:58.756Z,9.53
2019-05-16T00:46:58.109Z,9.62
2019-05-16T00:47:58.489Z,9.45
2019-05-16T00:48:58.769Z,9.48
2019-05-16T00:49:58.243Z,9.41
2019-05-16T00:50:58.388Z,9.45
2019-05-16T00:51:58.313Z,9.41
2019-05-16T00:52:58.691Z,9.30
2019-05-16T00:53:58.692Z,9.35
2019-05-16T00:54:57.989Z,9.22
2019-05-16T00:55:58.371Z,9.27
2019-05-16T00:56:57.825Z,9.20
2019-05-16T00:57:58.194Z,9.13
2019-05-16T00:58:55.893Z,9.10
2019-05-16T00:59:55.915Z,9.16
2019-05-16T01:00:55.723Z,9.10
2019-05-16T01:01:55.686Z,9.10
2019-05-16T01:02:57.746Z,9.12
2019-05-16T01:03:55.469Z,9.08
2019-05-16T01:04:55.535Z,9.15
2019-05-16T01:05:55.304Z,9.08
2019-05-16T01:06:55.228Z,8.97
2019-05-16T01:07:55.314Z,9.10
2019-05-16T01:08:55.049Z,8.97
2019-05-16T01:09:55.123Z,9.00
2019-05-16T01:10:54.898Z,8.93
2019-05-16T01:11:54.930Z,8.94
2019-05-16T01:12:54.722Z,8.88
2019-05-16T01:13:54.637Z,8.89
2019-05-16T01:14:54.747Z,8.82
2019-05-16T01:15:54.476Z,8.82
2019-05-16T01:16:54.378Z,8.85
2019-05-16T01:17:54.358Z,8.79
2019-05-16T01:18:54.213Z,8.85
2019-05-16T01:19:54.166Z,8.85
2019-05-16T01:20:54.057Z,8.86
2019-05-16T01:21:54.184Z,8.85
2019-05-16T01:22:53.876Z,8.79
2019-05-16T01:23:53.989Z,8.79
2019-05-16T01:24:53.705Z,8.79
2019-05-16T01:25:53.844Z,8.79
2019-05-16T01:26:53.541Z,8.80
2019-05-16T01:27:53.604Z,8.76
2019-05-16T01:28:53.370Z,8.73
2019-05-16T01:29:53.285Z,8.73
2019-05-16T01:30:53.245Z,8.65
2019-05-16T01:31:53.126Z,8.70
2019-05-16T01:32:53.041Z,8.75
2019-05-16T01:33:53.032Z,8.63
2019-05-16T01:34:52.870Z,8.58
2019-05-16T01:35:52.883Z,8.57
2019-05-16T01:36:52.697Z,8.57
2019-05-16T01:37:52.626Z,8.60
2019-05-16T01:38:52.532Z,8.60
2019-05-16T01:39:52.662Z,8.63
2019-05-16T01:40:52.378Z,8.58
2019-05-16T01:41:52.471Z,8.60
2019-05-16T01:42:52.194Z,8.63
2019-05-16T01:43:52.274Z,8.63
2019-05-16T01:44:52.030Z,8.64
2019-05-16T01:45:52.122Z,8.75
2019-05-16T01:46:51.864Z,8.76
2019-05-16T01:47:51.894Z,8.79
2019-05-16T01:48:51.689Z,8.79
2019-05-16T01:49:51.700Z,8.78
2019-05-16T01:50:51.519Z,8.78
2019-05-16T01:51:51.540Z,8.78
2019-05-16T01:52:51.357Z,8.83
2019-05-16T01:53:51.275Z,8.79
2019-05-16T01:54:51.324Z,8.78
2019-05-16T01:55:51.126Z,8.79
2019-05-16T01:56:51.030Z,8.79
2019-05-16T01:57:51.142Z,8.79
2019-05-16T01:58:50.850Z,8.85
2019-05-16T01:59:50.771Z,8.78
2019-05-16T02:01:02.131Z,8.79
2019-05-16T02:01:50.614Z,8.80
2019-05-16T02:02:50.513Z,8.79
2019-05-16T02:03:50.566Z,8.86
2019-05-16T02:04:50.340Z,8.86
2019-05-16T02:05:50.257Z,8.86
2019-05-16T02:06:54.442Z,8.91
2019-05-16T02:07:50.087Z,8.89
2019-05-16T02:08:50.008Z,8.94
2019-05-16T02:09:49.998Z,8.91
2019-05-16T02:10:49.843Z,8.97
2019-05-16T02:11:49.843Z,8.96
2019-05-16T02:12:49.666Z,8.96
2019-05-16T02:13:49.586Z,8.96
2019-05-16T02:14:49.618Z,8.88
2019-05-16T02:15:49.416Z,8.96
2019-05-16T02:16:49.337Z,8.98
2019-05-16T02:17:49.466Z,9.00
2019-05-16T02:18:49.163Z,8.94
2019-05-16T02:19:49.088Z,9.04
2019-05-16T02:20:48.997Z,8.98
2019-05-16T02:21:50.704Z,8.97
2019-05-16T02:22:48.845Z,8.94
2019-05-16T02:23:51.603Z,8.97
2019-05-16T02:24:48.657Z,8.96
2019-05-16T02:25:49.187Z,9.00
2019-05-16T02:26:49.332Z,9.03
2019-05-16T02:27:48.981Z,9.13
2019-05-16T02:28:50.766Z,8.97
2019-05-16T02:29:50.580Z,9.00
2019-05-16T02:30:51.469Z,8.94
2019-05-16T02:31:51.116Z,8.97
2019-05-16T02:32:51.873Z,8.96
2019-05-16T02:33:50.815Z,8.96
2019-05-16T02:34:47.902Z,9.08
2019-05-16T02:35:54.812Z,9.15
2019-05-16T02:37:08.284Z,9.10
2019-05-16T02:37:47.776Z,9.12
2019-05-16T02:38:50.882Z,9.06
2019-05-16T02:39:47.408Z,9.16
2019-05-16T02:40:47.329Z,9.13
2019-05-16T02:41:47.238Z,9.13
2019-05-16T02:42:47.160Z,9.13
2019-05-16T02:43:47.147Z,9.16
2019-05-16T02:44:46.980Z,9.08
2019-05-16T02:45:46.914Z,9.04
2019-05-16T02:46:46.960Z,9.01
2019-05-16T02:47:46.757Z,8.96
2019-05-16T02:48:46.645Z,9.00
2019-05-16T02:49:46.784Z,9.00
2019-05-16T02:50:46.473Z,8.94
2019-05-16T02:51:46.394Z,9.03
2019-05-16T02:52:46.385Z,9.04
2019-05-16T02:53:46.240Z,9.13
2019-05-16T02:54:46.137Z,9.15
2019-05-16T02:55:46.199Z,9.08
2019-05-16T02:56:45.976Z,9.15
2019-05-16T02:57:46.011Z,9.08
2019-05-16T02:58:45.816Z,9.04
2019-05-16T02:59:45.716Z,9.08
2019-05-16T03:00:45.823Z,9.10
2019-05-16T03:01:45.553Z,9.01
2019-05-16T03:02:45.464Z,9.01
2019-05-16T03:03:45.468Z,9.08
2019-05-16T03:04:45.298Z,9.10
2019-05-16T03:05:45.219Z,8.97
2019-05-16T03:06:45.253Z,9.03
2019-05-16T03:07:47.416Z,9.06
2019-05-16T03:08:44.976Z,8.98
2019-05-16T03:09:44.893Z,9.10
2019-05-16T03:10:44.797Z,8.96
2019-05-16T03:11:44.876Z,9.00
2019-05-16T03:12:44.625Z,8.97
2019-05-16T03:13:44.661Z,8.94
2019-05-16T03:14:44.481Z,8.91
2019-05-16T03:15:44.374Z,8.97
2019-05-16T03:16:44.294Z,8.98
2019-05-16T03:17:44.312Z,8.96
2019-05-16T03:18:44.134Z,8.94
2019-05-16T03:19:44.052Z,9.06
2019-05-16T03:20:43.958Z,9.01
2019-05-16T03:21:43.919Z,8.97
2019-05-16T03:22:43.784Z,9.00
2019-05-16T03:23:43.708Z,8.97
2019-05-16T03:24:43.761Z,8.93
2019-05-16T03:25:43.535Z,8.94
2019-05-16T03:26:43.539Z,8.89
2019-05-16T03:27:43.365Z,8.88
2019-05-16T03:28:43.351Z,8.93
2019-05-16T03:29:43.209Z,8.94
2019-05-16T03:30:44.952Z,8.93
2019-05-16T03:31:45.143Z,8.93
2019-05-16T03:32:45.662Z,8.93
2019-05-16T03:33:50.345Z,8.93
2019-05-16T03:34:44.456Z,8.93
2019-05-16T03:35:44.878Z,8.79
2019-05-16T03:36:43.823Z,8.83
2019-05-16T03:37:55.058Z,8.85
2019-05-16T03:38:42.597Z,8.85
2019-05-16T03:39:42.519Z,8.86
2019-05-16T03:40:42.303Z,8.83
2019-05-16T03:41:42.407Z,8.80
2019-05-16T03:42:42.121Z,8.79
2019-05-16T03:43:42.032Z,8.82
2019-05-16T03:44:42.027Z,8.89
2019-05-16T03:45:42.011Z,8.96
2019-05-16T03:46:41.773Z,9.17
2019-05-16T03:47:42.889Z,9.15
2019-05-16T03:48:41.605Z,9.22
2019-05-16T03:49:42.174Z,9.26
2019-05-16T03:50:41.486Z,9.34
2019-05-16T03:51:41.770Z,9.34
2019-05-16T03:52:43.658Z,9.32
2019-05-16T03:53:41.261Z,9.37
2019-05-16T03:54:41.982Z,9.30
2019-05-16T03:55:41.210Z,9.37
2019-05-16T03:56:41.090Z,9.24
2019-05-16T03:57:41.756Z,9.22
2019-05-16T03:58:41.737Z,9.32
2019-05-16T03:59:41.133Z,9.24
2019-05-16T04:00:45.393Z,9.24
2019-05-16T04:01:41.123Z,9.22
2019-05-16T04:02:42.068Z,9.20
2019-05-16T04:03:41.205Z,9.24
2019-05-16T04:04:41.675Z,9.17
2019-05-16T04:05:41.332Z,9.13
2019-05-16T04:06:41.562Z,9.15
2019-05-16T04:07:41.453Z,9.12
2019-05-16T04:08:41.255Z,9.13
2019-05-16T04:09:41.217Z,9.10
2019-05-16T04:10:40.932Z,9.12
2019-05-16T04:11:42.494Z,8.97
2019-05-16T04:12:42.017Z,9.08
2019-05-16T04:13:41.182Z,9.13
2019-05-16T04:14:40.913Z,8.97
2019-05-16T04:15:40.739Z,8.93
2019-05-16T04:16:41.463Z,8.91
2019-05-16T04:17:41.190Z,8.97
2019-05-16T04:18:41.979Z,9.00
2019-05-16T04:19:41.545Z,9.00
2019-05-16T04:20:40.577Z,9.00
2019-05-16T04:21:42.072Z,8.94
2019-05-16T04:22:40.795Z,9.01
2019-05-16T04:23:41.691Z,9.01
2019-05-16T04:24:41.568Z,8.98
2019-05-16T04:25:41.070Z,8.96
2019-05-16T04:26:40.948Z,8.94
2019-05-16T04:27:41.252Z,9.03
2019-05-16T04:28:41.181Z,9.17
2019-05-16T04:29:40.837Z,9.24
2019-05-16T04:30:41.317Z,9.31
2019-05-16T04:31:41.060Z,9.30
2019-05-16T04:32:37.921Z,9.37
2019-05-16T04:33:41.192Z,9.35
2019-05-16T04:34:37.759Z,9.37
2019-05-16T04:35:40.960Z,9.37
2019-05-16T04:36:40.486Z,9.35
2019-05-16T04:37:37.505Z,9.41
2019-05-16T04:38:42.814Z,9.48
2019-05-16T04:39:37.428Z,9.50
2019-05-16T04:40:38.704Z,9.59
2019-05-16T04:41:40.703Z,9.63
2019-05-16T04:42:37.147Z,9.59
2019-05-16T04:43:37.002Z,9.71
2019-05-16T04:44:36.919Z,9.70
2019-05-16T04:45:36.874Z,9.75
2019-05-16T04:46:36.769Z,9.80
2019-05-16T04:47:36.774Z,9.83
2019-05-16T04:48:36.582Z,9.83
2019-05-16T04:49:36.586Z,9.85
2019-05-16T04:50:36.421Z,9.85
2019-05-16T04:51:36.428Z,9.86
2019-05-16T04:52:36.253Z,9.86
2019-05-16T04:53:36.174Z,9.89
2019-05-16T04:54:36.087Z,9.89
2019-05-16T04:55:36.016Z,9.93
2019-05-16T04:56:35.929Z,9.99
2019-05-16T04:57:35.925Z,9.99
2019-05-16T04:58:35.751Z,10.09
2019-05-16T04:59:35.736Z,10.14
2019-05-16T05:00:35.589Z,10.18
2019-05-16T05:01:35.574Z,10.22
2019-05-16T05:02:35.419Z,10.26
2019-05-16T05:03:35.349Z,10.31
2019-05-16T05:04:35.250Z,10.38
2019-05-16T05:05:35.271Z,10.25
2019-05-16T05:06:35.102Z,10.42
2019-05-16T05:07:35.075Z,10.25
2019-05-16T05:08:49.329Z,10.28
2019-05-16T05:09:34.844Z,10.42
2019-05-16T05:10:34.752Z,10.36
2019-05-16T05:11:41.258Z,10.46
2019-05-16T05:12:34.586Z,10.28
2019-05-16T05:13:34.504Z,10.39
2019-05-16T05:14:34.418Z,10.34
2019-05-16T05:15:34.414Z,10.32
2019-05-16T05:16:34.279Z,10.35
2019-05-16T05:17:34.166Z,10.35
2019-05-16T05:18:34.130Z,10.42
2019-05-16T05:19:34.013Z,10.47
2019-05-16T05:20:33.927Z,10.31
2019-05-16T05:21:33.877Z,10.31
2019-05-16T05:22:33.783Z,10.28
2019-05-16T05:23:33.673Z,10.32
2019-05-16T05:24:33.592Z,10.25
2019-05-16T05:25:33.516Z,10.28
2019-05-16T05:26:33.426Z,10.28
2019-05-16T05:27:33.359Z,10.28
2019-05-16T05:28:33.256Z,10.38
2019-05-16T05:29:33.174Z,10.36
2019-05-16T05:30:33.100Z,10.31
2019-05-16T05:31:35.222Z,10.42
2019-05-16T05:32:32.933Z,10.36
2019-05-16T05:33:32.843Z,10.35
2019-05-16T05:34:32.756Z,10.39
2019-05-16T05:35:32.673Z,10.36
2019-05-16T05:36:32.598Z,10.32
2019-05-16T05:37:32.520Z,10.36
2019-05-16T05:38:32.436Z,10.43
2019-05-16T05:39:32.343Z,10.26
2019-05-16T05:40:32.265Z,10.29
2019-05-16T05:41:32.170Z,10.43
2019-05-16T05:42:32.110Z,10.44
2019-05-16T05:43:32.003Z,10.35
2019-05-16T05:44:31.925Z,10.25
2019-05-16T05:45:31.847Z,10.34
2019-05-16T05:46:31.849Z,10.31
2019-05-16T05:47:31.698Z,10.36
2019-05-16T05:48:31.596Z,10.26
2019-05-16T05:49:31.509Z,10.32
2019-05-16T05:50:31.440Z,10.35
2019-05-16T05:51:31.373Z,10.36
2019-05-16T05:52:31.278Z,10.49
2019-05-16T05:53:31.219Z,10.51
2019-05-16T05:54:31.102Z,10.44
2019-05-16T05:55:31.483Z,10.47
2019-05-16T05:56:30.937Z,10.58
2019-05-16T05:57:30.859Z,10.63
2019-05-16T05:58:31.102Z,10.70
2019-05-16T05:59:30.798Z,10.60
2019-05-16T06:00:30.607Z,10.55
2019-05-16T06:01:31.471Z,10.62
2019-05-16T06:02:30.966Z,10.63
2019-05-16T06:03:32.914Z,10.70
2019-05-16T06:04:30.616Z,10.68
2019-05-16T06:05:30.603Z,10.72
2019-05-16T06:06:30.484Z,10.76
2019-05-16T06:07:30.210Z,10.78
2019-05-16T06:08:30.561Z,10.75
2019-05-16T06:09:32.853Z,10.75
2019-05-16T06:10:30.432Z,10.78
2019-05-16T06:11:30.765Z,10.73
2019-05-16T06:12:30.282Z,10.80
2019-05-16T06:13:30.993Z,10.87
2019-05-16T06:14:30.653Z,10.87
2019-05-16T06:15:30.640Z,10.94
2019-05-16T06:16:30.824Z,10.94
2019-05-16T06:17:30.692Z,10.94
2019-05-16T06:18:30.617Z,11.01
2019-05-16T06:19:29.752Z,11.16
2019-05-16T06:20:30.796Z,11.20
2019-05-16T06:21:33.032Z,11.17
2019-05-16T06:22:29.894Z,11.08
2019-05-16T06:23:31.068Z,11.06
2019-05-16T06:24:30.507Z,11.16
2019-05-16T06:25:31.584Z,11.16
2019-05-16T06:26:30.334Z,11.17
2019-05-16T06:27:30.226Z,11.33
2019-05-16T06:28:30.573Z,11.27
2019-05-16T06:29:30.789Z,11.28
2019-05-16T06:30:30.401Z,11.41
2019-05-16T06:31:31.084Z,11.54
2019-05-16T06:32:30.232Z,11.70
2019-05-16T06:33:30.329Z,11.63
2019-05-16T06:34:30.029Z,11.79
2019-05-16T06:35:29.928Z,11.94
2019-05-16T06:36:27.629Z,11.93
2019-05-16T06:37:27.598Z,12.15
2019-05-16T06:38:29.693Z,12.11
2019-05-16T06:39:39.175Z,12.12
2019-05-16T06:40:29.435Z,12.00
2019-05-16T06:41:27.209Z,12.12
2019-05-16T06:42:27.227Z,12.13
2019-05-16T06:43:27.079Z,12.29
2019-05-16T06:44:26.962Z,12.36
2019-05-16T06:45:26.887Z,12.44
2019-05-16T06:46:26.803Z,12.51
2019-05-16T06:47:26.724Z,12.67
2019-05-16T06:48:26.683Z,12.58
2019-05-16T06:49:26.559Z,12.61
2019-05-16T06:50:26.472Z,12.55
2019-05-16T06:51:26.467Z,12.59
2019-05-16T06:52:26.314Z,12.46
2019-05-16T06:53:26.253Z,12.48
2019-05-16T06:54:26.149Z,12.59
2019-05-16T06:55:26.284Z,12.73
2019-05-16T06:56:25.989Z,12.77
2019-05-16T06:57:26.094Z,12.69
2019-05-16T06:58:25.839Z,12.70
2019-05-16T06:59:25.903Z,12.80
2019-05-16T07:00:26.552Z,12.81
2019-05-16T07:01:25.582Z,13.01
2019-05-16T07:02:30.617Z,13.17
2019-05-16T07:03:25.432Z,13.14
2019-05-16T07:04:25.340Z,13.04
2019-05-16T07:05:25.327Z,12.87
2019-05-16T07:06:47.666Z,12.77
2019-05-16T07:07:25.112Z,12.74
2019-05-16T07:08:25.175Z,12.71
2019-05-16T07:09:24.941Z,12.54
2019-05-16T07:10:24.858Z,12.66
2019-05-16T07:11:24.955Z,12.59
2019-05-16T07:12:24.703Z,12.61
2019-05-16T07:13:24.767Z,12.61
2019-05-16T07:14:28.154Z,12.66
2019-05-16T07:15:24.576Z,12.48
2019-05-16T07:16:24.370Z,12.33
2019-05-16T07:17:24.383Z,12.30
2019-05-16T07:18:24.207Z,12.30
2019-05-16T07:19:24.224Z,12.21
2019-05-16T07:20:24.048Z,12.33
2019-05-16T07:21:23.962Z,12.30
2019-05-16T07:22:23.888Z,12.31
2019-05-16T07:23:24.014Z,12.41
2019-05-16T07:24:23.731Z,12.41
2019-05-16T07:25:23.823Z,12.46
2019-05-16T07:26:23.563Z,12.43
2019-05-16T07:27:23.471Z,12.43
2019-05-16T07:28:23.443Z,12.46
2019-05-16T07:29:23.323Z,12.40
2019-05-16T07:30:23.234Z,12.30
2019-05-16T07:31:23.247Z,12.36
2019-05-16T07:32:23.066Z,12.44
2019-05-16T07:33:23.060Z,12.43
2019-05-16T07:34:22.916Z,12.25
2019-05-16T07:35:22.867Z,12.25
2019-05-16T07:36:22.741Z,12.29
2019-05-16T07:37:22.880Z,12.40
2019-05-16T07:38:22.576Z,12.43
2019-05-16T07:39:22.720Z,12.49
2019-05-16T07:40:26.499Z,12.30
2019-05-16T07:41:22.495Z,12.22
2019-05-16T07:42:22.259Z,12.31
2019-05-16T07:43:22.304Z,12.34
2019-05-16T07:44:22.109Z,12.26
2019-05-16T07:45:22.111Z,12.30
2019-05-16T07:46:21.926Z,12.43
2019-05-16T07:47:21.844Z,12.48
2019-05-16T07:48:22.310Z,12.67
2019-05-16T07:49:21.702Z,12.58
2019-05-16T07:50:21.596Z,12.74
2019-05-16T07:51:21.741Z,12.70
2019-05-16T07:52:21.446Z,12.84
2019-05-16T07:53:21.777Z,12.66
2019-05-16T07:54:21.506Z,12.74
2019-05-16T07:55:21.358Z,12.81
2019-05-16T07:56:21.113Z,12.87
2019-05-16T07:57:22.952Z,12.94
2019-05-16T07:58:22.160Z,13.06
2019-05-16T07:59:21.005Z,13.21
2019-05-16T08:00:21.817Z,13.17
2019-05-16T08:01:20.790Z,12.91
2019-05-16T08:02:21.101Z,12.91
2019-05-16T08:03:20.594Z,12.77
2019-05-16T08:04:20.479Z,12.69
2019-05-16T08:05:21.196Z,12.63
2019-05-16T08:06:20.330Z,12.46
2019-05-16T08:07:20.412Z,12.41
2019-05-16T08:09:21.143Z,12.52
2019-05-16T08:10:35.992Z,12.66
2019-05-16T08:11:23.384Z,12.56
2019-05-16T08:12:25.455Z,12.56
2019-05-16T08:13:21.082Z,12.59
2019-05-16T08:14:21.208Z,12.58
2019-05-16T08:15:21.253Z,12.62
2019-05-16T08:16:20.772Z,12.31
2019-05-16T08:17:21.657Z,12.26
2019-05-16T08:18:21.276Z,12.12
2019-05-16T08:19:20.007Z,12.25
2019-05-16T08:20:21.285Z,12.12
2019-05-16T08:21:20.227Z,12.01
2019-05-16T08:22:19.011Z,12.00
2019-05-16T08:23:21.883Z,12.00
2019-05-16T08:24:20.503Z,11.98
2019-05-16T08:25:20.394Z,12.03
2019-05-16T08:26:21.839Z,11.98
2019-05-16T08:27:20.846Z,11.84
2019-05-16T08:28:21.524Z,11.66
2019-05-16T08:29:21.796Z,11.75
2019-05-16T08:30:21.048Z,11.75
2019-05-16T08:31:21.402Z,11.85
2019-05-16T08:32:22.643Z,11.85
2019-05-16T08:33:21.414Z,11.84
2019-05-16T08:34:20.793Z,11.88
2019-05-16T08:35:20.505Z,11.84
2019-05-16T08:36:20.105Z,11.94
2019-05-16T08:37:34.000Z,11.96
2019-05-16T08:38:21.124Z,11.96
2019-05-16T08:39:17.613Z,11.79
2019-05-16T08:40:21.075Z,11.84
2019-05-16T08:41:21.739Z,11.88
2019-05-16T08:42:20.600Z,11.82
2019-05-16T08:43:21.414Z,11.84
2019-05-16T08:44:21.307Z,11.85
2019-05-16T08:45:17.146Z,11.82
2019-05-16T08:46:20.017Z,11.82
2019-05-16T08:47:16.962Z,11.79
2019-05-16T08:48:16.999Z,11.81
2019-05-16T08:49:16.793Z,11.84
2019-05-16T08:50:12.168Z,12.33
2019-05-16T08:50:16.843Z,11.85
2019-05-16T08:51:16.636Z,11.84
2019-05-16T08:52:16.631Z,11.78
2019-05-16T08:53:16.622Z,11.79
2019-05-16T08:54:16.515Z,11.74
2019-05-16T08:55:16.331Z,11.82
2019-05-16T08:56:16.437Z,11.85
2019-05-16T08:58:16.247Z,11.82
2019-05-16T08:59:15.978Z,11.84
2019-05-16T09:00:16.056Z,11.88
2019-05-16T09:01:15.819Z,11.87
2019-05-16T09:02:15.730Z,11.98
2019-05-16T09:03:15.867Z,11.96
2019-05-16T09:04:15.569Z,11.97
2019-05-16T09:05:15.486Z,11.97
2019-05-16T09:06:15.509Z,11.98
2019-05-16T09:07:15.314Z,11.97
2019-05-16T09:08:15.291Z,11.98
2019-05-16T09:09:29.484Z,12.05
2019-05-16T09:10:35.524Z,11.96
2019-05-16T09:10:45.712Z,12.13
2019-05-16T09:11:33.003Z,12.13
2019-05-16T09:12:17.178Z,12.22
2019-05-16T09:13:16.806Z,12.29
2019-05-16T09:14:17.168Z,12.37
2019-05-16T09:15:17.070Z,12.43
2019-05-16T09:16:14.587Z,12.56
2019-05-16T09:17:14.531Z,12.56
2019-05-16T09:18:17.562Z,12.61
2019-05-16T09:19:16.851Z,12.69
2019-05-16T09:20:17.285Z,12.76
2019-05-16T09:21:14.191Z,12.89
2019-05-16T09:22:14.087Z,12.85
2019-05-16T09:23:14.161Z,12.99
2019-05-16T09:24:13.919Z,13.24
2019-05-16T09:25:13.862Z,13.46
2019-05-16T09:26:18.720Z,13.31
2019-05-16T09:27:13.675Z,13.27
2019-05-16T09:28:13.596Z,13.41
2019-05-16T09:29:13.586Z,13.46
2019-05-16T09:30:13.437Z,13.46
2019-05-16T09:31:13.367Z,13.65
2019-05-16T09:32:17.952Z,13.75
2019-05-16T09:33:13.199Z,13.93
2019-05-16T09:34:13.210Z,14.06
2019-05-16T09:35:13.029Z,13.72
2019-05-16T09:36:12.968Z,13.75
2019-05-16T09:37:12.879Z,13.86
2019-05-16T09:38:12.825Z,13.63
2019-05-16T09:39:12.714Z,13.44
2019-05-16T09:40:12.628Z,13.47
2019-05-16T09:41:12.571Z,13.46
2019-05-16T09:42:12.649Z,13.57
2019-05-16T09:43:12.387Z,13.66
2019-05-16T09:44:12.304Z,13.98
2019-05-16T09:45:12.254Z,14.01
2019-05-16T09:46:12.142Z,13.94
2019-05-16T09:47:12.083Z,13.80
2019-05-16T09:48:12.074Z,13.79
2019-05-16T09:49:19.441Z,13.79
2019-05-16T09:50:11.823Z,13.80
2019-05-16T09:51:11.884Z,13.61
2019-05-16T09:52:11.675Z,13.51
2019-05-16T09:53:11.697Z,13.72
2019-05-16T09:54:11.499Z,13.87
2019-05-16T09:55:11.504Z,13.94
2019-05-16T09:56:11.342Z,14.16
2019-05-16T09:57:11.268Z,14.17
2019-05-16T09:58:11.323Z,14.30
2019-05-16T09:59:11.105Z,14.41
2019-05-16T10:00:11.018Z,14.45
2019-05-16T10:01:11.134Z,14.46
2019-05-16T10:02:10.868Z,14.63
2019-05-16T10:03:10.811Z,14.74
2019-05-16T10:04:11.629Z,14.93
2019-05-16T10:05:13.193Z,15.11
2019-05-16T10:06:10.533Z,15.13
2019-05-16T10:07:10.590Z,15.34
2019-05-16T10:08:10.374Z,15.46
2019-05-16T10:09:10.364Z,15.68
2019-05-16T10:10:10.213Z,15.85
2019-05-16T10:11:10.175Z,16.16
2019-05-16T10:12:15.364Z,16.45
2019-05-16T10:13:09.977Z,16.17
2019-05-16T10:14:09.992Z,15.78
2019-05-16T10:15:09.815Z,15.74
2019-05-16T10:16:09.743Z,15.88
2019-05-16T10:17:09.838Z,15.84
2019-05-16T10:18:09.583Z,15.38
2019-05-16T10:19:09.613Z,15.07
2019-05-16T10:20:09.430Z,15.33
2019-05-16T10:21:09.426Z,15.33
2019-05-16T10:22:09.290Z,15.52
2019-05-16T10:23:14.702Z,15.52
2019-05-16T10:24:09.105Z,15.34
2019-05-16T10:25:09.448Z,15.35
2019-05-16T10:26:08.948Z,15.40
2019-05-16T10:27:08.871Z,15.74
2019-05-16T10:28:08.907Z,15.93
2019-05-16T10:29:11.008Z,16.40
2019-05-16T10:30:08.903Z,16.37
2019-05-16T10:31:08.563Z,16.55
2019-05-16T10:32:08.515Z,16.50
2019-05-16T10:33:08.420Z,16.06
2019-05-16T10:34:08.325Z,16.18
2019-05-16T10:35:08.263Z,16.66
2019-05-16T10:36:08.611Z,16.60
2019-05-16T10:37:08.307Z,16.45
2019-05-16T10:38:08.028Z,16.37
2019-05-16T10:39:07.999Z,15.66
2019-05-16T10:40:07.880Z,15.41
2019-05-16T10:41:07.920Z,15.70
2019-05-16T10:42:21.992Z,15.70
2019-05-16T10:43:07.650Z,15.67
2019-05-16T10:44:07.731Z,15.89
2019-05-16T10:45:08.585Z,15.78
2019-05-16T10:46:07.392Z,16.01
2019-05-16T10:47:07.700Z,16.06
2019-05-16T10:48:07.247Z,16.30
2019-05-16T10:49:07.358Z,15.78
2019-05-16T10:50:07.078Z,15.55
2019-05-16T10:51:07.856Z,15.85
2019-05-16T10:52:07.296Z,15.96
2019-05-16T10:53:25.832Z,15.93
2019-05-16T10:54:13.402Z,16.22
2019-05-16T10:55:08.155Z,16.59
2019-05-16T10:56:07.791Z,16.72
2019-05-16T10:57:08.146Z,17.10
2019-05-16T10:58:07.359Z,17.09
2019-05-16T10:59:50.218Z,17.06
2019-05-16T11:00:16.099Z,16.54
2019-05-16T11:01:18.892Z,16.40
2019-05-16T11:02:07.508Z,15.95
2019-05-16T11:03:06.648Z,16.36
2019-05-16T11:04:07.533Z,15.68
2019-05-16T11:05:24.594Z,16.11
2019-05-16T11:06:08.941Z,16.51
2019-05-16T11:07:05.835Z,15.99
2019-05-16T11:08:08.242Z,16.07
2019-05-16T11:09:06.496Z,16.30
2019-05-16T11:10:07.057Z,16.41
2019-05-16T11:11:06.664Z,16.59
2019-05-16T11:12:05.393Z,16.72
2019-05-16T11:13:07.880Z,17.02
2019-05-16T11:14:08.990Z,16.57
2019-05-16T11:15:07.820Z,16.42
2019-05-16T11:16:07.026Z,16.26
2019-05-16T11:17:11.754Z,16.54
2019-05-16T11:18:06.842Z,16.81
2019-05-16T11:19:17.919Z,16.85
2019-05-16T11:20:04.780Z,17.10
2019-05-16T11:21:04.904Z,17.15
2019-05-16T11:22:04.627Z,17.65
2019-05-16T11:23:07.698Z,18.13
2019-05-16T11:24:06.304Z,18.26
2019-05-16T11:25:18.446Z,18.23
2019-05-16T11:26:04.331Z,18.41
2019-05-16T11:27:04.329Z,18.64
2019-05-16T11:28:07.014Z,18.99
2019-05-16T11:29:04.171Z,19.32
2019-05-16T11:30:04.123Z,19.46
2019-05-16T11:31:04.232Z,19.25
2019-05-16T11:32:03.896Z,18.96
2019-05-16T11:33:03.962Z,18.76
2019-05-16T11:34:03.754Z,18.32
2019-05-16T11:35:03.771Z,17.92
2019-05-16T11:36:03.597Z,17.92
2019-05-16T11:37:03.519Z,17.76
2019-05-16T11:38:03.444Z,17.47
2019-05-16T11:39:03.418Z,17.73
2019-05-16T11:40:03.307Z,18.07
2019-05-16T11:41:03.229Z,18.23
2019-05-16T11:42:03.201Z,18.26
2019-05-16T11:43:09.364Z,17.89
2019-05-16T11:44:03.026Z,17.86
2019-05-16T11:45:03.019Z,18.31
2019-05-16T11:46:02.863Z,18.34
2019-05-16T11:47:02.835Z,17.94
2019-05-16T11:48:02.831Z,18.26
2019-05-16T11:49:02.651Z,18.11
2019-05-16T11:50:02.639Z,17.89
2019-05-16T11:51:02.491Z,17.40
2019-05-16T11:52:02.448Z,17.17
2019-05-16T11:53:02.338Z,16.91
2019-05-16T11:54:02.493Z,16.60
2019-05-16T11:55:02.197Z,16.90
2019-05-16T11:56:02.388Z,17.09
2019-05-16T11:57:02.033Z,17.14
2019-05-16T11:58:01.963Z,17.14
2019-05-16T11:59:02.125Z,17.09
2019-05-16T12:00:01.824Z,17.18
2019-05-16T12:01:01.735Z,17.28
2019-05-16T12:02:01.693Z,17.18
2019-05-16T12:03:01.576Z,17.36
2019-05-16T12:04:02.563Z,17.30
2019-05-16T12:05:01.452Z,17.28
2019-05-16T12:06:01.518Z,17.30
2019-05-16T12:07:01.267Z,17.35
2019-05-16T12:08:01.332Z,17.63
2019-05-16T12:09:01.153Z,17.39
2019-05-16T12:10:01.148Z,17.35
2019-05-16T12:11:00.967Z,17.38
2019-05-16T12:12:04.214Z,17.68
2019-05-16T12:13:00.949Z,17.54
2019-05-16T12:14:00.732Z,17.18
2019-05-16T12:15:00.673Z,17.45
2019-05-16T12:16:00.831Z,17.63
2019-05-16T12:17:00.495Z,17.83
2019-05-16T12:18:04.781Z,18.09
2019-05-16T12:19:00.372Z,17.84
2019-05-16T12:20:00.302Z,17.79
2019-05-16T12:21:00.190Z,17.99
2019-05-16T12:22:00.402Z,18.11
2019-05-16T12:23:00.049Z,18.05
2019-05-16T12:23:59.963Z,18.10
2019-05-16T12:25:00.040Z,18.13
2019-05-16T12:26:00.290Z,18.26
2019-05-16T12:27:00.771Z,18.05
2019-05-16T12:27:59.819Z,17.83
2019-05-16T12:28:59.580Z,17.86
2019-05-16T12:29:59.516Z,17.40
2019-05-16T12:30:59.631Z,17.40
2019-05-16T12:32:02.718Z,17.51
2019-05-16T12:32:59.256Z,17.42
2019-05-16T12:33:59.886Z,17.35
2019-05-16T12:34:59.118Z,17.39
2019-05-16T12:35:59.027Z,17.39
2019-05-16T12:36:59.063Z,17.47
2019-05-16T12:37:58.872Z,17.71
2019-05-16T12:38:58.868Z,17.94
2019-05-16T12:39:58.737Z,17.94
2019-05-16T12:40:58.675Z,17.45
2019-05-16T12:41:59.838Z,17.43
2019-05-16T12:42:58.484Z,17.74
2019-05-16T12:43:58.492Z,17.40
2019-05-16T12:44:58.342Z,17.45
2019-05-16T12:45:58.256Z,17.17
2019-05-16T12:46:58.306Z,17.15
2019-05-16T12:47:58.094Z,17.40
2019-05-16T12:48:58.017Z,17.65
2019-05-16T12:49:58.177Z,17.58
2019-05-16T12:50:58.965Z,17.06
2019-05-16T12:51:57.801Z,16.91
2019-05-16T12:52:57.734Z,16.81
2019-05-16T12:53:57.624Z,16.87
2019-05-16T12:54:57.554Z,17.14
2019-05-16T12:55:57.579Z,17.36
2019-05-16T12:56:58.025Z,17.58
2019-05-16T12:58:12.203Z,17.96
2019-05-16T12:58:57.363Z,18.26
2019-05-16T12:59:57.158Z,18.02
2019-05-16T13:00:58.093Z,17.65